createdAt,value
2019-03-26T00:01:15.160Z,36.33
2019-03-26T00:02:51.503Z,36.07
2019-03-26T00:04:27.677Z,36.40
2019-03-26T00:06:03.913Z,36.90
2019-03-26T00:07:40.221Z,36.00
2019-03-26T00:09:16.557Z,37.40
2019-03-26T00:10:52.887Z,33.13
2019-03-26T00:12:29.388Z,35.10
2019-03-26T00:14:06.209Z,36.83
2019-03-26T00:15:42.646Z,38.00
2019-03-26T00:17:18.822Z,39.17
2019-03-26T00:18:56.310Z,38.07
2019-03-26T00:20:32.656Z,38.97
2019-03-26T00:22:08.996Z,36.53
2019-03-26T00:23:45.444Z,37.40
2019-03-26T00:25:21.746Z,39.07
2019-03-26T00:26:57.934Z,36.83
2019-03-26T00:28:34.139Z,36.27
2019-03-26T00:30:11.560Z,36.10
2019-03-26T00:31:47.992Z,35.50
2019-03-26T00:33:35.665Z,38.03
2019-03-26T00:35:02.234Z,35.57
2019-03-26T00:36:38.571Z,37.40
2019-03-26T00:38:14.802Z,35.30
2019-03-26T00:39:51.140Z,37.93
2019-03-26T00:41:27.499Z,38.63
2019-03-26T00:43:03.720Z,39.63
2019-03-26T00:44:40.171Z,37.40
2019-03-26T00:46:16.521Z,37.17
2019-03-26T00:47:52.705Z,35.07
2019-03-26T00:49:28.805Z,35.13
2019-03-26T00:51:05.062Z,40.20
2019-03-26T00:52:41.148Z,38.23
2019-03-26T00:54:17.953Z,38.20
2019-03-26T00:55:54.482Z,37.83
2019-03-26T00:57:30.862Z,39.30
2019-03-26T00:59:07.288Z,38.93
2019-03-26T01:00:44.694Z,39.83
2019-03-26T01:02:20.903Z,43.40
2019-03-26T01:03:57.353Z,41.10
2019-03-26T01:05:33.844Z,42.20
2019-03-26T01:07:10.211Z,40.40
2019-03-26T01:08:46.460Z,42.63
2019-03-26T01:10:28.064Z,46.50
2019-03-26T01:12:04.243Z,43.00
2019-03-26T01:13:40.315Z,41.43
2019-03-26T01:15:16.740Z,41.90
2019-03-26T01:16:52.970Z,40.23
2019-03-26T01:18:29.063Z,42.07
2019-03-26T01:20:07.539Z,43.50
2019-03-26T01:21:43.706Z,36.20
2019-03-26T01:23:19.806Z,37.30
2019-03-26T01:24:55.976Z,39.17
2019-03-26T01:26:32.258Z,37.10
2019-03-26T01:28:09.606Z,37.53
2019-03-26T01:29:45.765Z,36.07
2019-03-26T01:31:21.999Z,35.47
2019-03-26T01:32:58.362Z,34.87
2019-03-26T01:34:45.444Z,33.57
2019-03-26T01:36:12.383Z,32.73
2019-03-26T01:37:48.486Z,30.93
2019-03-26T01:39:24.733Z,32.07
2019-03-26T01:41:01.129Z,30.97
2019-03-26T01:42:37.436Z,31.70
2019-03-26T01:44:13.778Z,30.70
2019-03-26T01:45:49.893Z,33.70
2019-03-26T01:47:26.121Z,33.90
2019-03-26T01:49:02.454Z,33.33
2019-03-26T01:50:38.699Z,31.13
2019-03-26T01:52:14.861Z,31.27
2019-03-26T01:53:51.023Z,31.40
2019-03-26T01:55:27.355Z,33.17
2019-03-26T01:57:03.588Z,30.20
2019-03-26T01:58:39.848Z,31.53
2019-03-26T02:00:16.243Z,30.67
2019-03-26T02:01:52.505Z,31.13
2019-03-26T02:03:29.851Z,32.50
2019-03-26T02:05:07.587Z,31.83
2019-03-26T02:06:43.823Z,32.00
2019-03-26T02:08:19.964Z,32.23
2019-03-26T02:09:56.192Z,33.03
2019-03-26T02:11:32.388Z,34.03
2019-03-26T02:13:08.562Z,32.63
2019-03-26T02:14:44.756Z,31.37
2019-03-26T02:16:20.922Z,30.07
2019-03-26T02:17:57.966Z,31.63
2019-03-26T02:19:34.235Z,31.30
2019-03-26T02:21:10.766Z,31.43
2019-03-26T02:22:46.868Z,32.23
2019-03-26T02:24:23.153Z,31.70
2019-03-26T02:25:59.320Z,31.27
2019-03-26T02:27:35.552Z,31.43
2019-03-26T02:29:11.809Z,32.77
2019-03-26T02:30:48.059Z,32.23
2019-03-26T02:32:24.284Z,32.77
2019-03-26T02:34:00.419Z,31.40
2019-03-26T02:35:36.721Z,32.73
2019-03-26T02:37:12.958Z,32.13
2019-03-26T02:38:49.118Z,33.23
2019-03-26T02:40:25.427Z,33.57
2019-03-26T02:42:01.587Z,33.03
2019-03-26T02:43:38.416Z,32.80
2019-03-26T02:45:14.719Z,34.83
2019-03-26T02:46:50.436Z,33.07
2019-03-26T02:48:26.542Z,36.20
2019-03-26T02:50:02.579Z,37.07
2019-03-26T02:51:38.720Z,37.47
2019-03-26T02:53:15.018Z,38.60
2019-03-26T02:54:51.275Z,39.43
2019-03-26T02:56:27.370Z,40.40
2019-03-26T02:58:03.363Z,39.17
2019-03-26T02:59:39.591Z,42.00
2019-03-26T03:01:15.678Z,42.37
2019-03-26T03:02:51.914Z,42.37
2019-03-26T03:04:28.240Z,42.97
2019-03-26T03:06:04.549Z,44.23
2019-03-26T03:07:40.855Z,43.70
2019-03-26T03:09:17.024Z,41.53
2019-03-26T03:10:53.093Z,44.27
2019-03-26T03:12:29.183Z,41.97
2019-03-26T03:14:06.543Z,42.33
2019-03-26T03:15:42.697Z,45.63
2019-03-26T03:17:18.828Z,45.77
2019-03-26T03:18:55.062Z,45.53
2019-03-26T03:20:31.247Z,43.83
2019-03-26T03:22:07.350Z,45.50
2019-03-26T03:23:43.438Z,46.10
2019-03-26T03:25:19.680Z,44.90
2019-03-26T03:26:55.920Z,44.23
2019-03-26T03:28:32.152Z,44.73
2019-03-26T03:30:09.651Z,44.53
2019-03-26T03:31:45.721Z,45.17
2019-03-26T03:33:21.867Z,46.57
2019-03-26T03:34:58.031Z,45.70
2019-03-26T03:36:34.361Z,46.20
2019-03-26T03:38:10.528Z,45.27
2019-03-26T03:39:46.664Z,44.83
2019-03-26T03:41:22.978Z,46.43
2019-03-26T03:42:59.388Z,47.53
2019-03-26T03:44:35.731Z,46.90
2019-03-26T03:46:12.116Z,46.33
2019-03-26T03:47:48.613Z,45.60
2019-03-26T03:49:28.143Z,43.03
2019-03-26T03:51:07.087Z,45.23
2019-03-26T03:52:43.781Z,44.53
2019-03-26T03:54:22.181Z,43.93
2019-03-26T03:56:01.148Z,44.97
2019-03-26T03:57:39.685Z,42.90
2019-03-26T03:59:16.686Z,43.73
2019-03-26T04:00:52.889Z,46.30
2019-03-26T04:02:29.059Z,45.80
2019-03-26T04:04:05.401Z,44.97
2019-03-26T04:05:41.706Z,41.77
2019-03-26T04:07:17.909Z,45.90
2019-03-26T04:08:54.093Z,43.87
2019-03-26T04:10:30.253Z,46.27
2019-03-26T04:12:06.558Z,41.83
2019-03-26T04:13:42.557Z,42.33
2019-03-26T04:15:18.769Z,42.80
2019-03-26T04:16:55.100Z,41.50
2019-03-26T04:18:31.220Z,42.00
2019-03-26T04:20:07.688Z,42.20
2019-03-26T04:21:43.936Z,42.93
2019-03-26T04:23:19.908Z,41.37
2019-03-26T04:24:56.059Z,40.60
2019-03-26T04:26:32.218Z,41.10
2019-03-26T04:28:08.434Z,39.27
2019-03-26T04:29:44.543Z,39.37
2019-03-26T04:31:20.694Z,38.87
2019-03-26T04:32:56.875Z,39.50
2019-03-26T04:34:33.136Z,39.67
2019-03-26T04:36:24.893Z,38.07
2019-03-26T04:37:48.462Z,40.60
2019-03-26T04:39:24.745Z,40.40
2019-03-26T04:41:00.842Z,39.13
2019-03-26T04:42:37.012Z,39.60
2019-03-26T04:44:13.179Z,40.73
2019-03-26T04:45:49.339Z,38.60
2019-03-26T04:47:25.510Z,37.97
2019-03-26T04:49:01.624Z,37.27
2019-03-26T04:50:37.791Z,35.83
2019-03-26T04:52:14.094Z,36.47
2019-03-26T04:53:50.256Z,37.43
2019-03-26T04:55:26.496Z,36.27
2019-03-26T04:57:02.760Z,35.27
2019-03-26T04:58:38.835Z,34.10
2019-03-26T05:00:16.231Z,33.03
2019-03-26T05:01:52.306Z,29.80
2019-03-26T05:03:28.476Z,30.07
2019-03-26T05:05:05.812Z,30.67
2019-03-26T05:06:41.896Z,28.43
2019-03-26T05:08:18.155Z,30.03
2019-03-26T05:09:54.454Z,29.40
2019-03-26T05:11:30.632Z,28.20
2019-03-26T05:13:06.852Z,29.77
2019-03-26T05:14:44.213Z,30.57
2019-03-26T05:16:20.454Z,30.03
2019-03-26T05:17:57.007Z,30.03
2019-03-26T05:19:33.338Z,31.27
2019-03-26T05:21:09.432Z,29.30
2019-03-26T05:22:45.610Z,29.67
2019-03-26T05:24:21.859Z,29.47
2019-03-26T05:25:57.785Z,29.57
2019-03-26T05:27:44.902Z,28.23
2019-03-26T05:29:11.752Z,26.80
2019-03-26T05:30:47.935Z,26.27
2019-03-26T05:32:23.716Z,26.13
2019-03-26T05:33:59.879Z,27.77
2019-03-26T05:35:36.138Z,26.33
2019-03-26T05:37:12.467Z,26.03
2019-03-26T05:38:48.812Z,25.57
2019-03-26T05:40:25.045Z,24.73
2019-03-26T05:42:01.295Z,25.30
2019-03-26T05:43:37.402Z,25.40
2019-03-26T05:45:14.306Z,22.60
2019-03-26T05:46:50.439Z,24.60
2019-03-26T05:48:26.570Z,22.77
2019-03-26T05:50:02.731Z,22.97
2019-03-26T05:51:38.978Z,23.10
2019-03-26T05:53:15.068Z,22.77
2019-03-26T05:54:51.310Z,22.27
2019-03-26T05:56:30.499Z,22.93
2019-03-26T05:58:05.757Z,22.97
2019-03-26T05:59:42.876Z,21.80
2019-03-26T06:01:18.973Z,23.53
2019-03-26T06:02:55.107Z,21.80
2019-03-26T06:04:31.264Z,21.33
2019-03-26T06:06:07.324Z,22.37
2019-03-26T06:07:44.679Z,22.03
2019-03-26T06:09:20.800Z,22.47
2019-03-26T06:10:56.881Z,21.10
2019-03-26T06:12:33.043Z,23.30
2019-03-26T06:14:09.212Z,23.07
2019-03-26T06:15:45.275Z,21.03
2019-03-26T06:17:21.552Z,21.47
2019-03-26T06:18:57.739Z,20.60
2019-03-26T06:20:33.975Z,21.23
2019-03-26T06:22:10.213Z,19.10
2019-03-26T06:23:46.377Z,19.60
2019-03-26T06:25:22.649Z,17.67
2019-03-26T06:26:58.849Z,17.67
2019-03-26T06:28:35.085Z,16.97
2019-03-26T06:30:11.779Z,16.97
2019-03-26T06:31:47.891Z,17.73
2019-03-26T06:33:24.162Z,17.50
2019-03-26T06:35:00.366Z,18.37
2019-03-26T06:36:36.464Z,16.80
2019-03-26T06:38:12.625Z,17.37
2019-03-26T06:39:48.891Z,18.53
2019-03-26T06:41:25.075Z,17.07
2019-03-26T06:43:01.169Z,16.73
2019-03-26T06:44:37.290Z,18.50
2019-03-26T06:46:13.515Z,18.30
2019-03-26T06:47:49.748Z,18.50
2019-03-26T06:49:25.933Z,19.57
2019-03-26T06:51:14.742Z,18.70
2019-03-26T06:52:50.802Z,19.70
2019-03-26T06:54:26.996Z,22.20
2019-03-26T06:56:03.060Z,21.63
2019-03-26T06:57:39.358Z,22.53
2019-03-26T06:59:15.500Z,22.47
2019-03-26T07:00:51.800Z,20.70
2019-03-26T07:02:28.100Z,28.43
2019-03-26T07:04:04.805Z,30.17
2019-03-26T07:05:41.037Z,30.30
2019-03-26T07:07:30.522Z,27.20
2019-03-26T07:08:55.516Z,26.43
2019-03-26T07:10:32.217Z,22.60
2019-03-26T07:12:08.311Z,21.10
2019-03-26T07:13:44.547Z,22.30
2019-03-26T07:15:20.882Z,24.70
2019-03-26T07:16:56.809Z,22.10
2019-03-26T07:18:33.159Z,20.73
2019-03-26T07:20:10.484Z,22.10
2019-03-26T07:21:49.908Z,21.03
2019-03-26T07:23:24.551Z,21.07
2019-03-26T07:25:00.883Z,20.67
2019-03-26T07:26:37.091Z,19.90
2019-03-26T07:28:13.290Z,19.53
2019-03-26T07:29:49.527Z,18.80
2019-03-26T07:31:25.702Z,18.63
2019-03-26T07:33:01.792Z,20.50
2019-03-26T07:34:37.979Z,22.57
2019-03-26T07:36:14.289Z,20.33
2019-03-26T07:37:50.448Z,21.03
2019-03-26T07:39:26.610Z,20.27
2019-03-26T07:41:03.021Z,19.70
2019-03-26T07:42:40.528Z,22.00
2019-03-26T07:44:16.790Z,20.93
2019-03-26T07:45:53.105Z,21.13
2019-03-26T07:47:29.264Z,21.47
2019-03-26T07:49:05.551Z,23.73
2019-03-26T07:50:41.886Z,25.43
2019-03-26T07:52:18.118Z,27.20
2019-03-26T07:53:54.207Z,30.20
2019-03-26T07:55:30.485Z,31.37
2019-03-26T07:57:06.729Z,27.70
2019-03-26T07:58:42.866Z,27.20
2019-03-26T08:00:23.816Z,27.33
2019-03-26T08:01:59.907Z,27.83
2019-03-26T08:03:35.904Z,26.10
2019-03-26T08:05:12.238Z,25.93
2019-03-26T08:06:48.310Z,24.63
2019-03-26T08:08:24.463Z,26.10
2019-03-26T08:10:00.633Z,25.53
2019-03-26T08:11:36.908Z,23.67
2019-03-26T08:13:13.173Z,25.87
2019-03-26T08:14:49.293Z,24.17
2019-03-26T08:16:25.459Z,25.67
2019-03-26T08:18:01.675Z,25.47
2019-03-26T08:19:37.778Z,25.10
2019-03-26T08:21:14.016Z,26.00
2019-03-26T08:22:50.081Z,24.03
2019-03-26T08:24:26.406Z,22.60
2019-03-26T08:26:02.844Z,22.03
2019-03-26T08:27:38.943Z,21.13
2019-03-26T08:29:15.094Z,20.63
2019-03-26T08:30:51.322Z,19.73
2019-03-26T08:32:27.411Z,19.43
2019-03-26T08:34:03.548Z,17.97
2019-03-26T08:35:39.638Z,18.20
2019-03-26T08:37:15.843Z,18.37
2019-03-26T08:38:51.968Z,18.50
2019-03-26T08:40:28.134Z,18.77
2019-03-26T08:42:04.364Z,18.17
2019-03-26T08:43:41.109Z,18.37
2019-03-26T08:45:17.427Z,20.60
2019-03-26T08:46:53.234Z,22.13
2019-03-26T08:48:32.367Z,19.30
2019-03-26T08:50:09.319Z,20.73
2019-03-26T08:51:45.350Z,18.30
2019-03-26T08:53:21.593Z,18.97
2019-03-26T08:54:57.770Z,17.40
2019-03-26T08:56:34.054Z,16.80
2019-03-26T08:58:10.151Z,16.67
2019-03-26T08:59:46.315Z,16.60
2019-03-26T09:01:23.746Z,15.90
2019-03-26T09:03:00.006Z,15.57
2019-03-26T09:04:36.192Z,13.87
2019-03-26T09:06:12.496Z,12.20
2019-03-26T09:07:48.838Z,10.80
2019-03-26T09:09:25.080Z,10.90
2019-03-26T09:11:01.270Z,10.33
2019-03-26T09:12:39.534Z,10.43
2019-03-26T09:14:15.179Z,11.40
2019-03-26T09:15:51.456Z,12.47
2019-03-26T09:17:27.695Z,9.90
2019-03-26T09:19:03.936Z,9.80
2019-03-26T09:20:40.113Z,11.20
2019-03-26T09:22:16.252Z,11.30
2019-03-26T09:23:52.491Z,10.43
2019-03-26T09:25:28.556Z,10.10
2019-03-26T09:27:07.057Z,9.23
2019-03-26T09:28:43.245Z,9.03
2019-03-26T09:30:19.626Z,9.90
2019-03-26T09:31:55.936Z,10.17
2019-03-26T09:33:32.108Z,10.87
2019-03-26T09:35:09.858Z,9.93
2019-03-26T09:36:45.926Z,9.43
2019-03-26T09:38:22.266Z,10.20
2019-03-26T09:39:58.384Z,8.07
2019-03-26T09:41:34.604Z,8.63
2019-03-26T09:43:10.695Z,8.87
2019-03-26T09:44:46.758Z,9.10
2019-03-26T09:46:23.023Z,10.10
2019-03-26T09:47:59.232Z,8.87
2019-03-26T09:49:35.486Z,7.57
2019-03-26T09:51:11.683Z,8.53
2019-03-26T09:52:47.848Z,7.03
2019-03-26T09:54:24.079Z,7.87
2019-03-26T09:56:00.542Z,8.37
2019-03-26T09:57:38.041Z,8.13
2019-03-26T09:59:14.187Z,7.37
2019-03-26T10:00:50.551Z,8.30
2019-03-26T10:02:27.097Z,7.47
2019-03-26T10:04:04.523Z,6.97
2019-03-26T10:05:40.769Z,7.37
2019-03-26T10:07:21.699Z,8.23
2019-03-26T10:08:54.855Z,7.13
2019-03-26T10:10:31.039Z,6.80
2019-03-26T10:12:07.329Z,6.27
2019-03-26T10:13:43.496Z,5.60
2019-03-26T10:15:19.747Z,6.53
2019-03-26T10:16:55.908Z,6.57
2019-03-26T10:18:32.083Z,5.40
2019-03-26T10:20:09.202Z,6.73
2019-03-26T10:21:45.263Z,6.33
2019-03-26T10:23:21.532Z,5.37
2019-03-26T10:24:57.704Z,5.40
2019-03-26T10:26:33.952Z,6.07
2019-03-26T10:28:10.175Z,5.23
2019-03-26T10:29:46.280Z,5.40
2019-03-26T10:31:22.599Z,5.70
2019-03-26T10:32:58.928Z,6.13
2019-03-26T10:34:36.687Z,6.20
2019-03-26T10:36:12.999Z,6.70
2019-03-26T10:37:49.271Z,7.50
2019-03-26T10:39:25.525Z,6.47
2019-03-26T10:41:01.634Z,6.87
2019-03-26T10:42:37.892Z,6.43
2019-03-26T10:44:14.143Z,5.73
2019-03-26T10:45:50.440Z,5.47
2019-03-26T10:47:26.489Z,5.53
2019-03-26T10:49:02.706Z,5.93
2019-03-26T10:50:39.124Z,5.50
2019-03-26T10:52:15.254Z,5.57
2019-03-26T10:53:51.421Z,7.33
2019-03-26T10:55:27.718Z,5.07
2019-03-26T10:57:03.999Z,4.77
2019-03-26T10:58:40.223Z,6.07
2019-03-26T11:00:17.114Z,7.60
2019-03-26T11:01:53.239Z,6.73
2019-03-26T11:03:29.341Z,10.17
2019-03-26T11:05:07.639Z,8.90
2019-03-26T11:06:43.693Z,7.73
2019-03-26T11:08:19.854Z,8.43
2019-03-26T11:09:56.105Z,6.80
2019-03-26T11:11:32.259Z,6.03
2019-03-26T11:13:08.572Z,6.27
2019-03-26T11:14:44.916Z,5.30
2019-03-26T11:16:21.067Z,5.03
2019-03-26T11:17:57.305Z,6.27
2019-03-26T11:19:33.534Z,6.20
2019-03-26T11:21:09.938Z,6.87
2019-03-26T11:22:46.235Z,5.13
2019-03-26T11:24:22.322Z,5.50
2019-03-26T11:25:58.344Z,4.30
2019-03-26T11:27:34.560Z,4.07
2019-03-26T11:29:10.784Z,4.73
2019-03-26T11:30:46.934Z,5.60
2019-03-26T11:32:23.103Z,4.30
2019-03-26T11:33:59.433Z,5.90
2019-03-26T11:35:35.725Z,5.47
2019-03-26T11:37:12.023Z,6.00
2019-03-26T11:38:48.356Z,7.70
2019-03-26T11:40:24.584Z,4.47
2019-03-26T11:42:00.839Z,4.77
2019-03-26T11:43:37.062Z,5.50
2019-03-26T11:45:13.967Z,5.80
2019-03-26T11:46:50.026Z,5.37
2019-03-26T11:48:26.353Z,6.00
2019-03-26T11:50:04.796Z,6.20
2019-03-26T11:51:40.847Z,4.50
2019-03-26T11:53:17.075Z,4.30
2019-03-26T11:54:53.242Z,4.40
2019-03-26T11:56:29.489Z,4.60
2019-03-26T11:58:05.714Z,4.70
2019-03-26T11:59:41.937Z,5.13
2019-03-26T12:01:18.089Z,7.30
2019-03-26T12:02:54.387Z,6.77
2019-03-26T12:04:30.512Z,6.53
2019-03-26T12:06:06.811Z,5.10
2019-03-26T12:07:43.269Z,6.13
2019-03-26T12:09:19.231Z,5.90
2019-03-26T12:10:56.229Z,5.70
2019-03-26T12:12:32.405Z,5.00
2019-03-26T12:14:08.702Z,6.07
2019-03-26T12:15:44.939Z,6.80
2019-03-26T12:17:21.092Z,6.10
2019-03-26T12:18:57.251Z,5.77
2019-03-26T12:20:33.338Z,5.33
2019-03-26T12:22:09.557Z,5.47
2019-03-26T12:23:45.720Z,4.83
2019-03-26T12:25:22.015Z,5.87
2019-03-26T12:26:58.267Z,5.03
2019-03-26T12:28:34.418Z,6.17
2019-03-26T12:30:11.566Z,9.13
2019-03-26T12:31:47.852Z,8.23
2019-03-26T12:33:24.107Z,7.93
2019-03-26T12:35:00.402Z,6.20
2019-03-26T12:36:40.130Z,7.53
2019-03-26T12:38:19.483Z,11.83
2019-03-26T12:39:59.757Z,11.43
2019-03-26T12:41:33.652Z,7.30
2019-03-26T12:43:09.849Z,8.60
2019-03-26T12:44:46.072Z,7.33
2019-03-26T12:46:22.304Z,6.87
2019-03-26T12:47:58.574Z,8.03
2019-03-26T12:49:34.870Z,6.50
2019-03-26T12:51:10.973Z,4.70
2019-03-26T12:52:47.051Z,5.30
2019-03-26T12:54:23.162Z,5.30
2019-03-26T12:55:59.036Z,6.10
2019-03-26T12:57:35.195Z,4.83
2019-03-26T12:59:11.376Z,5.00
2019-03-26T13:00:47.498Z,7.40
2019-03-26T13:02:23.715Z,7.57
2019-03-26T13:04:11.965Z,7.00
2019-03-26T13:05:37.936Z,6.40
2019-03-26T13:07:14.225Z,7.33
2019-03-26T13:08:50.495Z,7.27
2019-03-26T13:10:26.780Z,8.40
2019-03-26T13:12:03.141Z,7.53
2019-03-26T13:13:39.355Z,6.40
2019-03-26T13:15:15.556Z,7.70
2019-03-26T13:16:51.717Z,7.77
2019-03-26T13:18:27.897Z,7.80
2019-03-26T13:20:05.292Z,8.70
2019-03-26T13:21:41.450Z,7.73
2019-03-26T13:23:17.768Z,9.17
2019-03-26T13:24:54.028Z,8.87
2019-03-26T13:26:30.327Z,9.67
2019-03-26T13:28:06.620Z,10.13
2019-03-26T13:29:42.926Z,9.87
2019-03-26T13:31:19.074Z,8.57
2019-03-26T13:32:55.371Z,9.50
2019-03-26T13:34:31.612Z,8.60
2019-03-26T13:36:07.920Z,9.70
2019-03-26T13:37:44.042Z,8.17
2019-03-26T13:39:20.190Z,9.10
2019-03-26T13:40:56.487Z,11.20
2019-03-26T13:42:32.730Z,9.90
2019-03-26T13:44:08.978Z,9.40
2019-03-26T13:45:45.323Z,12.07
2019-03-26T13:47:21.605Z,12.20
2019-03-26T13:48:57.772Z,12.63
2019-03-26T13:50:34.082Z,11.40
2019-03-26T13:52:10.314Z,11.50
2019-03-26T13:53:46.560Z,10.93
2019-03-26T13:55:22.854Z,10.20
2019-03-26T13:56:58.987Z,10.20
2019-03-26T13:58:35.137Z,5.60
2019-03-26T14:00:12.639Z,6.93
2019-03-26T14:01:48.771Z,8.70
2019-03-26T14:03:24.983Z,9.07
2019-03-26T14:05:01.882Z,9.83
2019-03-26T14:06:38.019Z,9.87
2019-03-26T14:08:14.321Z,10.63
2019-03-26T14:09:50.477Z,11.67
2019-03-26T14:11:26.710Z,11.90
2019-03-26T14:13:03.111Z,10.60
2019-03-26T14:14:39.342Z,11.20
2019-03-26T14:16:15.481Z,12.53
2019-03-26T14:17:51.818Z,12.53
2019-03-26T14:19:28.048Z,11.70
2019-03-26T14:21:04.573Z,9.93
2019-03-26T14:22:40.803Z,11.67
2019-03-26T14:24:17.095Z,10.90
2019-03-26T14:25:53.394Z,11.87
2019-03-26T14:27:29.603Z,12.33
2019-03-26T14:29:05.909Z,10.60
2019-03-26T14:30:44.524Z,13.50
2019-03-26T14:32:20.613Z,13.40
2019-03-26T14:33:56.829Z,12.43
2019-03-26T14:35:32.986Z,13.17
2019-03-26T14:37:09.307Z,13.37
2019-03-26T14:38:45.402Z,13.67
2019-03-26T14:40:22.832Z,13.80
2019-03-26T14:41:59.066Z,12.97
2019-03-26T14:43:35.376Z,11.67
2019-03-26T14:45:11.685Z,14.30
2019-03-26T14:46:47.856Z,12.10
2019-03-26T14:48:24.153Z,11.97
2019-03-26T14:50:00.423Z,13.10
2019-03-26T14:51:36.577Z,11.23
2019-03-26T14:53:12.876Z,11.60
2019-03-26T14:54:49.208Z,10.90
2019-03-26T14:56:25.450Z,10.50
2019-03-26T14:58:01.750Z,10.23
2019-03-26T14:59:38.081Z,9.90
2019-03-26T15:01:15.519Z,10.40
2019-03-26T15:02:51.679Z,8.57
2019-03-26T15:04:27.666Z,8.13
2019-03-26T15:06:04.710Z,9.10
2019-03-26T15:07:40.972Z,8.23
2019-03-26T15:09:17.210Z,8.87
2019-03-26T15:10:53.438Z,6.43
2019-03-26T15:12:29.605Z,5.30
2019-03-26T15:14:06.107Z,4.93
2019-03-26T15:15:42.407Z,5.30
2019-03-26T15:17:18.680Z,4.47
2019-03-26T15:18:54.917Z,4.50
2019-03-26T15:20:31.175Z,4.50
2019-03-26T15:22:07.507Z,4.23
2019-03-26T15:23:43.700Z,3.67
2019-03-26T15:25:19.923Z,4.40
2019-03-26T15:26:56.075Z,4.63
2019-03-26T15:28:32.334Z,4.00
2019-03-26T15:30:10.169Z,3.90
2019-03-26T15:31:46.412Z,4.67
2019-03-26T15:33:22.567Z,4.67
2019-03-26T15:34:58.794Z,4.63
2019-03-26T15:36:34.950Z,4.53
2019-03-26T15:38:11.247Z,68.53
2019-03-26T15:39:47.507Z,14.77
2019-03-26T15:41:23.732Z,13.60
2019-03-26T15:42:59.918Z,6.33
2019-03-26T15:44:36.199Z,7.40
2019-03-26T15:46:13.064Z,40.10
2019-03-26T15:47:49.291Z,19.40
2019-03-26T15:49:25.414Z,38.30
2019-03-26T15:51:01.566Z,12.20
2019-03-26T15:52:42.082Z,8.93
2019-03-26T15:54:16.785Z,8.13
2019-03-26T15:55:53.026Z,10.10
2019-03-26T15:57:29.325Z,11.37
2019-03-26T15:59:05.192Z,9.07
2019-03-26T16:00:41.562Z,10.43
2019-03-26T16:02:17.922Z,9.47
2019-03-26T16:03:54.092Z,12.17
2019-03-26T16:05:30.205Z,9.93
2019-03-26T16:07:06.439Z,7.80
2019-03-26T16:08:42.575Z,7.47
2019-03-26T16:10:18.877Z,8.07
2019-03-26T16:11:55.190Z,7.83
2019-03-26T16:13:31.434Z,10.80
2019-03-26T16:15:08.457Z,8.23
2019-03-26T16:16:44.616Z,8.60
2019-03-26T16:18:20.731Z,9.50
2019-03-26T16:19:56.917Z,9.93
2019-03-26T16:21:33.316Z,11.00
2019-03-26T16:23:09.587Z,9.93
2019-03-26T16:24:45.751Z,8.90
2019-03-26T16:26:21.989Z,9.50
2019-03-26T16:27:58.286Z,8.53
2019-03-26T16:29:34.448Z,8.43
2019-03-26T16:31:10.745Z,8.93
2019-03-26T16:32:46.975Z,8.17
2019-03-26T16:34:25.435Z,11.10
2019-03-26T16:36:01.701Z,10.27
2019-03-26T16:37:37.969Z,10.97
2019-03-26T16:39:14.206Z,10.00
2019-03-26T16:40:50.396Z,11.40
2019-03-26T16:42:26.628Z,12.00
2019-03-26T16:44:02.496Z,9.27
2019-03-26T16:45:38.485Z,9.83
2019-03-26T16:47:14.586Z,7.87
2019-03-26T16:48:50.884Z,9.20
2019-03-26T16:50:27.124Z,9.40
2019-03-26T16:52:03.391Z,10.90
2019-03-26T16:53:39.624Z,10.70
2019-03-26T16:55:15.828Z,9.90
2019-03-26T16:56:52.064Z,12.57
2019-03-26T16:58:29.739Z,18.23
2019-03-26T17:00:08.451Z,11.27
2019-03-26T17:01:44.611Z,10.83
2019-03-26T17:03:30.803Z,10.27
2019-03-26T17:04:58.371Z,11.27
2019-03-26T17:06:34.547Z,10.43
2019-03-26T17:08:10.718Z,12.20
2019-03-26T17:09:46.870Z,11.27
2019-03-26T17:11:23.138Z,16.90
2019-03-26T17:12:59.332Z,12.20
2019-03-26T17:14:35.570Z,11.73
2019-03-26T17:16:11.666Z,16.00
2019-03-26T17:17:47.932Z,17.80
2019-03-26T17:19:24.177Z,14.03
2019-03-26T17:21:00.503Z,17.70
2019-03-26T17:22:37.806Z,30.53
2019-03-26T17:24:14.036Z,21.10
2019-03-26T17:25:50.331Z,15.60
2019-03-26T17:27:29.019Z,18.73
2019-03-26T17:29:04.430Z,16.60
2019-03-26T17:30:40.667Z,16.27
2019-03-26T17:32:16.984Z,17.20
2019-03-26T17:33:53.394Z,18.47
2019-03-26T17:35:29.508Z,20.13
2019-03-26T17:37:05.700Z,16.90
2019-03-26T17:38:41.819Z,16.53
2019-03-26T17:40:18.124Z,18.47
2019-03-26T17:41:54.283Z,18.63
2019-03-26T17:43:30.445Z,15.30
2019-03-26T17:45:08.349Z,14.47
2019-03-26T17:46:44.666Z,15.90
2019-03-26T17:48:20.753Z,16.67
2019-03-26T17:49:57.095Z,14.93
2019-03-26T17:51:33.349Z,11.17
2019-03-26T17:53:09.542Z,11.43
2019-03-26T17:54:45.863Z,10.30
2019-03-26T17:56:22.070Z,10.70
2019-03-26T17:57:58.293Z,11.03
2019-03-26T17:59:34.563Z,36.00
2019-03-26T18:01:10.805Z,38.47
2019-03-26T18:02:47.114Z,50.73
2019-03-26T18:04:23.561Z,20.93
2019-03-26T18:05:59.726Z,36.43
2019-03-26T18:07:35.820Z,21.10
2019-03-26T18:09:12.123Z,9.97
2019-03-26T18:10:48.385Z,8.77
2019-03-26T18:12:30.831Z,6.73
2019-03-26T18:14:02.646Z,16.47
2019-03-26T18:15:38.878Z,4.80
2019-03-26T18:17:15.071Z,18.40
2019-03-26T18:18:51.234Z,31.33
2019-03-26T18:20:32.859Z,30.90
2019-03-26T18:22:05.467Z,24.33
2019-03-26T18:23:41.633Z,18.30
2019-03-26T18:25:17.776Z,12.33
2019-03-26T18:26:53.949Z,5.57
2019-03-26T18:28:30.354Z,16.53
2019-03-26T18:30:07.261Z,16.10
2019-03-26T18:31:43.400Z,32.13
2019-03-26T18:33:19.698Z,34.27
2019-03-26T18:34:56.038Z,37.70
2019-03-26T18:36:32.197Z,32.67
2019-03-26T18:38:08.502Z,16.57
2019-03-26T18:39:44.496Z,32.77
2019-03-26T18:41:20.675Z,19.60
2019-03-26T18:42:57.013Z,35.83
2019-03-26T18:44:33.116Z,21.90
2019-03-26T18:46:09.342Z,26.10
2019-03-26T18:47:45.661Z,19.23
2019-03-26T18:49:21.827Z,14.23
2019-03-26T18:50:58.054Z,10.00
2019-03-26T18:52:34.038Z,20.93
2019-03-26T18:54:10.298Z,14.87
2019-03-26T18:55:46.628Z,16.20
2019-03-26T18:57:22.622Z,10.93
2019-03-26T18:58:58.749Z,9.70
2019-03-26T19:00:37.288Z,12.03
2019-03-26T19:02:13.377Z,7.27
2019-03-26T19:03:49.582Z,8.87
2019-03-26T19:05:25.821Z,17.03
2019-03-26T19:07:02.136Z,31.07
2019-03-26T19:08:39.937Z,20.40
2019-03-26T19:10:28.734Z,25.33
2019-03-26T19:12:05.037Z,30.80
2019-03-26T19:13:41.220Z,24.20
2019-03-26T19:15:17.558Z,26.87
2019-03-26T19:16:53.675Z,48.33
2019-03-26T19:18:29.667Z,48.50
2019-03-26T19:20:07.877Z,56.30
2019-03-26T19:21:43.948Z,10.30
2019-03-26T19:23:20.252Z,18.90
2019-03-26T19:24:56.403Z,34.40
2019-03-26T19:26:32.811Z,38.27
2019-03-26T19:28:09.137Z,36.03
2019-03-26T19:29:45.231Z,27.40
2019-03-26T19:31:40.731Z,27.67
2019-03-26T19:33:17.009Z,16.53
2019-03-26T19:34:53.246Z,10.27
2019-03-26T19:36:29.382Z,25.60
2019-03-26T19:38:05.516Z,28.23
2019-03-26T19:39:41.651Z,22.77
2019-03-26T19:41:17.889Z,33.27
2019-03-26T19:42:53.979Z,27.30
2019-03-26T19:44:30.210Z,14.83
2019-03-26T19:46:08.976Z,12.37
2019-03-26T19:47:45.222Z,13.20
2019-03-26T19:49:21.377Z,8.77
2019-03-26T19:50:57.687Z,5.73
2019-03-26T19:52:33.772Z,9.13
2019-03-26T19:54:10.085Z,11.77
2019-03-26T19:55:46.251Z,17.80
2019-03-26T19:57:23.872Z,17.23
2019-03-26T19:59:00.186Z,18.80
2019-03-26T20:00:36.355Z,18.03
2019-03-26T20:02:12.631Z,12.07
2019-03-26T20:03:48.680Z,12.20
2019-03-26T20:05:24.943Z,9.33
2019-03-26T20:07:01.111Z,21.40
2019-03-26T20:08:37.376Z,16.10
2019-03-26T20:10:15.069Z,8.27
2019-03-26T20:11:51.316Z,12.50
2019-03-26T20:13:27.639Z,11.13
2019-03-26T20:15:05.880Z,8.77
2019-03-26T20:16:42.417Z,13.57
2019-03-26T20:18:20.293Z,19.73
2019-03-26T20:19:59.222Z,12.17
2019-03-26T20:21:35.391Z,10.10
2019-03-26T20:23:14.380Z,11.27
2019-03-26T20:24:50.719Z,17.13
2019-03-26T20:26:27.124Z,12.77
2019-03-26T20:28:03.463Z,14.40
2019-03-26T20:29:39.692Z,12.47
2019-03-26T20:31:15.933Z,12.33
2019-03-26T20:37:27.221Z,9.23
2019-03-26T20:39:04.113Z,8.70
2019-03-26T20:40:40.553Z,7.90
2019-03-26T20:42:17.202Z,8.63
2019-03-26T20:43:53.703Z,8.83
2019-03-26T20:45:30.131Z,8.53
2019-03-26T20:47:07.543Z,8.33
2019-03-26T20:48:43.901Z,13.20
2019-03-26T20:50:20.436Z,30.40
2019-03-26T20:51:56.729Z,20.00
2019-03-26T20:53:33.268Z,18.23
2019-03-26T20:55:12.484Z,29.07
2019-03-26T20:56:49.069Z,18.77
2019-03-26T20:58:25.750Z,14.47
2019-03-26T21:00:02.359Z,24.17